sensor_id;sensor_type;location;lat;lon;timestamp;temperature;humidity
31542;DHT22;18152;49.986;8.646;2022-08-21T00:02:27;14.90;99.90
31542;DHT22;18152;49.986;8.646;2022-08-21T00:04:53;14.80;99.90
31542;DHT22;18152;49.986;8.646;2022-08-21T00:07:20;14.80;99.90
31542;DHT22;18152;49.986;8.646;2022-08-21T00:09:46;14.80;99.90
31542;DHT22;18152;49.986;8.646;2022-08-21T00:12:12;14.80;99.90
31542;DHT22;18152;49.986;8.646;2022-08-21T00:14:39;14.70;99.90
31542;DHT22;18152;49.986;8.646;2022-08-21T00:17:05;14.70;99.90
31542;DHT22;18152;49.986;8.646;2022-08-21T00:19:31;14.60;99.90
31542;DHT22;18152;49.986;8.646;2022-08-21T00:21:57;14.70;99.90
31542;DHT22;18152;49.986;8.646;2022-08-21T00:24:23;14.70;99.90
31542;DHT22;18152;49.986;8.646;2022-08-21T00:26:50;14.60;99.90
31542;DHT22;18152;49.986;8.646;2022-08-21T00:29:15;14.60;99.90
31542;DHT22;18152;49.986;8.646;2022-08-21T00:31:42;14.60;99.90
31542;DHT22;18152;49.986;8.646;2022-08-21T00:34:08;14.60;99.90
31542;DHT22;18152;49.986;8.646;2022-08-21T00:36:35;14.60;99.90
31542;DHT22;18152;49.986;8.646;2022-08-21T00:39:01;14.50;99.90
31542;DHT22;18152;49.986;8.646;2022-08-21T00:41:27;14.40;99.90
31542;DHT22;18152;49.986;8.646;2022-08-21T00:43:54;14.40;99.90
31542;DHT22;18152;49.986;8.646;2022-08-21T00:46:20;14.40;99.90
31542;DHT22;18152;49.986;8.646;2022-08-21T00:48:46;14.30;99.90
31542;DHT22;18152;49.986;8.646;2022-08-21T00:51:21;14.30;99.90
31542;DHT22;18152;49.986;8.646;2022-08-21T00:53:53;14.30;99.90
31542;DHT22;18152;49.986;8.646;2022-08-21T00:56:20;14.30;99.90
31542;DHT22;18152;49.986;8.646;2022-08-21T00:58:47;14.20;99.90
31542;DHT22;18152;49.986;8.646;2022-08-21T01:01:15;14.20;99.90
31542;DHT22;18152;49.986;8.646;2022-08-21T01:03:41;14.10;99.90
31542;DHT22;18152;49.986;8.646;2022-08-21T01:06:07;14.10;99.90
31542;DHT22;18152;49.986;8.646;2022-08-21T01:08:34;14.20;99.90
31542;DHT22;18152;49.986;8.646;2022-08-21T01:11:01;14.20;99.90
31542;DHT22;18152;49.986;8.646;2022-08-21T01:13:31;14.20;99.90
31542;DHT22;18152;49.986;8.646;2022-08-21T01:15:59;14.10;99.90
31542;DHT22;18152;49.986;8.646;2022-08-21T01:18:27;14.10;99.90
31542;DHT22;18152;49.986;8.646;2022-08-21T01:23:34;14.10;99.90
31542;DHT22;18152;49.986;8.646;2022-08-21T01:26:00;13.90;99.90
31542;DHT22;18152;49.986;8.646;2022-08-21T01:28:26;14.00;99.90
31542;DHT22;18152;49.986;8.646;2022-08-21T01:30:55;14.00;99.90
31542;DHT22;18152;49.986;8.646;2022-08-21T01:33:24;14.00;99.90
31542;DHT22;18152;49.986;8.646;2022-08-21T01:35:50;14.00;99.90
31542;DHT22;18152;49.986;8.646;2022-08-21T01:38:15;14.10;99.90
31542;DHT22;18152;49.986;8.646;2022-08-21T01:40:41;14.00;99.90
31542;DHT22;18152;49.986;8.646;2022-08-21T01:43:07;13.90;99.90
31542;DHT22;18152;49.986;8.646;2022-08-21T01:45:33;13.90;99.90
31542;DHT22;18152;49.986;8.646;2022-08-21T01:47:58;13.80;99.90
31542;DHT22;18152;49.986;8.646;2022-08-21T01:50:24;13.80;99.90
31542;DHT22;18152;49.986;8.646;2022-08-21T01:52:50;13.80;99.90
31542;DHT22;18152;49.986;8.646;2022-08-21T01:55:16;13.80;99.90
31542;DHT22;18152;49.986;8.646;2022-08-21T01:57:44;13.70;99.90
31542;DHT22;18152;49.986;8.646;2022-08-21T02:00:13;13.70;99.90
31542;DHT22;18152;49.986;8.646;2022-08-21T02:02:39;13.70;99.90
31542;DHT22;18152;49.986;8.646;2022-08-21T02:05:07;13.60;99.90
31542;DHT22;18152;49.986;8.646;2022-08-21T02:07:50;13.60;99.90
31542;DHT22;18152;49.986;8.646;2022-08-21T02:10:21;13.50;99.90
31542;DHT22;18152;49.986;8.646;2022-08-21T02:12:46;13.50;99.90
31542;DHT22;18152;49.986;8.646;2022-08-21T02:15:12;13.50;99.90
31542;DHT22;18152;49.986;8.646;2022-08-21T02:17:40;13.50;99.90
31542;DHT22;18152;49.986;8.646;2022-08-21T02:20:07;13.50;99.90
31542;DHT22;18152;49.986;8.646;2022-08-21T02:22:33;13.50;99.90
31542;DHT22;18152;49.986;8.646;2022-08-21T02:24:58;13.60;99.90
31542;DHT22;18152;49.986;8.646;2022-08-21T02:27:24;13.50;99.90
31542;DHT22;18152;49.986;8.646;2022-08-21T02:29:50;13.50;99.90
31542;DHT22;18152;49.986;8.646;2022-08-21T02:32:15;13.50;99.90
31542;DHT22;18152;49.986;8.646;2022-08-21T02:34:41;13.40;99.90
31542;DHT22;18152;49.986;8.646;2022-08-21T02:37:07;13.40;99.90
31542;DHT22;18152;49.986;8.646;2022-08-21T02:39:32;13.30;99.90
31542;DHT22;18152;49.986;8.646;2022-08-21T02:41:58;13.40;99.90
31542;DHT22;18152;49.986;8.646;2022-08-21T02:44:23;13.30;99.90
31542;DHT22;18152;49.986;8.646;2022-08-21T02:46:49;13.30;99.90
31542;DHT22;18152;49.986;8.646;2022-08-21T02:49:15;13.40;99.90
31542;DHT22;18152;49.986;8.646;2022-08-21T02:51:40;13.30;99.90
31542;DHT22;18152;49.986;8.646;2022-08-21T02:54:06;13.20;99.90
31542;DHT22;18152;49.986;8.646;2022-08-21T02:56:32;13.20;99.90
31542;DHT22;18152;49.986;8.646;2022-08-21T02:58:57;13.20;99.90
31542;DHT22;18152;49.986;8.646;2022-08-21T03:01:23;13.10;99.90
31542;DHT22;18152;49.986;8.646;2022-08-21T03:03:48;13.10;99.90
31542;DHT22;18152;49.986;8.646;2022-08-21T03:06:19;13.10;99.90
31542;DHT22;18152;49.986;8.646;2022-08-21T03:08:46;13.10;99.90
31542;DHT22;18152;49.986;8.646;2022-08-21T03:11:13;13.10;99.90
31542;DHT22;18152;49.986;8.646;2022-08-21T03:13:39;13.10;99.90
31542;DHT22;18152;49.986;8.646;2022-08-21T03:16:05;13.10;99.90
31542;DHT22;18152;49.986;8.646;2022-08-21T03:18:31;13.20;99.90
31542;DHT22;18152;49.986;8.646;2022-08-21T03:20:57;13.10;99.90
31542;DHT22;18152;49.986;8.646;2022-08-21T03:23:23;13.00;99.90
31542;DHT22;18152;49.986;8.646;2022-08-21T03:25:48;12.90;99.90
31542;DHT22;18152;49.986;8.646;2022-08-21T03:28:18;12.90;99.90
31542;DHT22;18152;49.986;8.646;2022-08-21T03:30:46;12.90;99.90
31542;DHT22;18152;49.986;8.646;2022-08-21T03:33:12;12.90;99.90
31542;DHT22;18152;49.986;8.646;2022-08-21T03:35:38;12.80;99.90
31542;DHT22;18152;49.986;8.646;2022-08-21T03:38:04;12.90;99.90
31542;DHT22;18152;49.986;8.646;2022-08-21T03:40:30;12.90;99.90
31542;DHT22;18152;49.986;8.646;2022-08-21T03:42:55;13.00;99.90
31542;DHT22;18152;49.986;8.646;2022-08-21T03:45:21;12.80;99.90
31542;DHT22;18152;49.986;8.646;2022-08-21T03:47:55;13.00;99.90
31542;DHT22;18152;49.986;8.646;2022-08-21T03:50:22;13.00;99.90
31542;DHT22;18152;49.986;8.646;2022-08-21T03:52:48;12.90;99.90
31542;DHT22;18152;49.986;8.646;2022-08-21T03:55:14;12.90;99.90
31542;DHT22;18152;49.986;8.646;2022-08-21T03:57:39;12.90;99.90
31542;DHT22;18152;49.986;8.646;2022-08-21T04:00:06;12.90;99.90
31542;DHT22;18152;49.986;8.646;2022-08-21T04:02:34;13.00;99.90
31542;DHT22;18152;49.986;8.646;2022-08-21T04:04:59;12.90;99.90
31542;DHT22;18152;49.986;8.646;2022-08-21T04:07:25;13.00;99.90
31542;DHT22;18152;49.986;8.646;2022-08-21T04:09:50;13.00;99.90
31542;DHT22;18152;49.986;8.646;2022-08-21T04:12:16;13.00;99.90
31542;DHT22;18152;49.986;8.646;2022-08-21T04:14:42;12.90;99.90
31542;DHT22;18152;49.986;8.646;2022-08-21T04:17:07;12.80;99.90
31542;DHT22;18152;49.986;8.646;2022-08-21T04:19:33;12.80;99.90
31542;DHT22;18152;49.986;8.646;2022-08-21T04:21:58;12.80;99.90
31542;DHT22;18152;49.986;8.646;2022-08-21T04:24:24;12.70;99.90
31542;DHT22;18152;49.986;8.646;2022-08-21T04:26:49;12.80;99.90
31542;DHT22;18152;49.986;8.646;2022-08-21T04:29:15;12.80;99.90
31542;DHT22;18152;49.986;8.646;2022-08-21T04:31:41;12.80;99.90
31542;DHT22;18152;49.986;8.646;2022-08-21T04:34:08;12.90;99.90
31542;DHT22;18152;49.986;8.646;2022-08-21T04:36:34;12.80;99.90
31542;DHT22;18152;49.986;8.646;2022-08-21T04:39:00;12.80;99.90
31542;DHT22;18152;49.986;8.646;2022-08-21T04:41:25;12.80;99.90
31542;DHT22;18152;49.986;8.646;2022-08-21T04:43:51;12.70;99.90
31542;DHT22;18152;49.986;8.646;2022-08-21T04:46:16;12.70;99.90
31542;DHT22;18152;49.986;8.646;2022-08-21T04:48:44;12.60;99.90
31542;DHT22;18152;49.986;8.646;2022-08-21T04:51:19;12.70;99.90
31542;DHT22;18152;49.986;8.646;2022-08-21T04:56:31;12.70;99.90
31542;DHT22;18152;49.986;8.646;2022-08-21T04:58:59;12.80;99.90
31542;DHT22;18152;49.986;8.646;2022-08-21T05:01:29;12.70;99.90
31542;DHT22;18152;49.986;8.646;2022-08-21T05:03:58;12.80;99.90
31542;DHT22;18152;49.986;8.646;2022-08-21T05:06:25;12.80;99.90
31542;DHT22;18152;49.986;8.646;2022-08-21T05:08:55;12.90;99.90
31542;DHT22;18152;49.986;8.646;2022-08-21T05:11:22;12.90;99.90
31542;DHT22;18152;49.986;8.646;2022-08-21T05:13:48;13.10;99.90
31542;DHT22;18152;49.986;8.646;2022-08-21T05:16:14;13.10;99.90
31542;DHT22;18152;49.986;8.646;2022-08-21T05:18:42;13.10;99.90
31542;DHT22;18152;49.986;8.646;2022-08-21T05:21:08;13.20;99.90
31542;DHT22;18152;49.986;8.646;2022-08-21T05:23:35;13.20;99.90
31542;DHT22;18152;49.986;8.646;2022-08-21T05:26:01;13.30;99.90
31542;DHT22;18152;49.986;8.646;2022-08-21T05:28:27;13.40;99.90
31542;DHT22;18152;49.986;8.646;2022-08-21T05:30:53;13.40;99.90
31542;DHT22;18152;49.986;8.646;2022-08-21T05:33:18;13.40;99.90
31542;DHT22;18152;49.986;8.646;2022-08-21T05:35:44;13.50;99.90
31542;DHT22;18152;49.986;8.646;2022-08-21T05:38:10;13.60;99.90
31542;DHT22;18152;49.986;8.646;2022-08-21T05:40:36;13.70;99.90
31542;DHT22;18152;49.986;8.646;2022-08-21T05:43:02;13.80;99.90
31542;DHT22;18152;49.986;8.646;2022-08-21T05:45:31;13.90;99.90
31542;DHT22;18152;49.986;8.646;2022-08-21T05:47:57;14.00;99.90
31542;DHT22;18152;49.986;8.646;2022-08-21T05:50:23;14.10;99.90
31542;DHT22;18152;49.986;8.646;2022-08-21T05:52:49;14.20;99.90
31542;DHT22;18152;49.986;8.646;2022-08-21T05:55:15;14.30;99.90
31542;DHT22;18152;49.986;8.646;2022-08-21T05:57:40;14.50;99.90
31542;DHT22;18152;49.986;8.646;2022-08-21T06:00:08;14.50;99.90
31542;DHT22;18152;49.986;8.646;2022-08-21T06:02:38;14.60;99.90
31542;DHT22;18152;49.986;8.646;2022-08-21T06:05:04;14.80;99.90
31542;DHT22;18152;49.986;8.646;2022-08-21T06:07:30;14.90;99.90
31542;DHT22;18152;49.986;8.646;2022-08-21T06:09:56;15.10;99.90
31542;DHT22;18152;49.986;8.646;2022-08-21T06:12:21;15.20;99.90
31542;DHT22;18152;49.986;8.646;2022-08-21T06:14:47;15.30;99.90
31542;DHT22;18152;49.986;8.646;2022-08-21T06:17:13;15.40;99.90
31542;DHT22;18152;49.986;8.646;2022-08-21T06:19:40;15.60;99.90
31542;DHT22;18152;49.986;8.646;2022-08-21T06:22:06;15.70;99.90
31542;DHT22;18152;49.986;8.646;2022-08-21T06:24:32;15.90;99.90
31542;DHT22;18152;49.986;8.646;2022-08-21T06:27:03;16.10;99.90
31542;DHT22;18152;49.986;8.646;2022-08-21T06:29:28;16.20;99.90
31542;DHT22;18152;49.986;8.646;2022-08-21T06:31:54;16.50;99.90
31542;DHT22;18152;49.986;8.646;2022-08-21T06:34:19;17.00;99.90
31542;DHT22;18152;49.986;8.646;2022-08-21T06:36:45;17.60;99.90
31542;DHT22;18152;49.986;8.646;2022-08-21T06:39:11;18.00;99.90
31542;DHT22;18152;49.986;8.646;2022-08-21T06:41:38;18.40;99.90
31542;DHT22;18152;49.986;8.646;2022-08-21T06:44:04;18.50;99.90
31542;DHT22;18152;49.986;8.646;2022-08-21T06:46:30;18.90;99.90
31542;DHT22;18152;49.986;8.646;2022-08-21T06:48:57;19.20;99.90
31542;DHT22;18152;49.986;8.646;2022-08-21T06:51:23;19.10;99.90
31542;DHT22;18152;49.986;8.646;2022-08-21T06:53:51;19.40;99.90
31542;DHT22;18152;49.986;8.646;2022-08-21T06:56:17;19.60;99.90
31542;DHT22;18152;49.986;8.646;2022-08-21T06:58:43;19.70;99.90
31542;DHT22;18152;49.986;8.646;2022-08-21T07:01:08;19.60;99.90
31542;DHT22;18152;49.986;8.646;2022-08-21T07:03:37;19.90;99.90
31542;DHT22;18152;49.986;8.646;2022-08-21T07:06:05;19.90;99.90
31542;DHT22;18152;49.986;8.646;2022-08-21T07:08:31;20.00;99.90
31542;DHT22;18152;49.986;8.646;2022-08-21T07:10:58;20.10;99.90
31542;DHT22;18152;49.986;8.646;2022-08-21T07:13:24;20.20;99.90
31542;DHT22;18152;49.986;8.646;2022-08-21T07:15:50;20.30;99.90
31542;DHT22;18152;49.986;8.646;2022-08-21T07:18:16;20.40;99.90
31542;DHT22;18152;49.986;8.646;2022-08-21T07:20:42;20.60;99.90
31542;DHT22;18152;49.986;8.646;2022-08-21T07:23:12;20.60;99.90
31542;DHT22;18152;49.986;8.646;2022-08-21T07:25:41;20.90;99.90
31542;DHT22;18152;49.986;8.646;2022-08-21T07:28:06;21.00;99.90
31542;DHT22;18152;49.986;8.646;2022-08-21T07:30:32;21.00;99.90
31542;DHT22;18152;49.986;8.646;2022-08-21T07:32:57;21.10;99.90
31542;DHT22;18152;49.986;8.646;2022-08-21T07:35:23;21.30;99.90
31542;DHT22;18152;49.986;8.646;2022-08-21T07:37:49;21.40;99.90
31542;DHT22;18152;49.986;8.646;2022-08-21T07:40:16;21.50;99.90
31542;DHT22;18152;49.986;8.646;2022-08-21T07:42:45;21.60;99.90
31542;DHT22;18152;49.986;8.646;2022-08-21T07:45:12;21.80;99.90
31542;DHT22;18152;49.986;8.646;2022-08-21T07:47:38;21.80;99.90
31542;DHT22;18152;49.986;8.646;2022-08-21T07:50:05;21.90;99.90
31542;DHT22;18152;49.986;8.646;2022-08-21T07:52:31;22.20;99.90
31542;DHT22;18152;49.986;8.646;2022-08-21T07:54:58;22.40;99.90
31542;DHT22;18152;49.986;8.646;2022-08-21T07:57:23;22.60;99.90
31542;DHT22;18152;49.986;8.646;2022-08-21T07:59:49;22.40;99.90
31542;DHT22;18152;49.986;8.646;2022-08-21T08:02:25;22.60;99.90
31542;DHT22;18152;49.986;8.646;2022-08-21T08:04:51;22.80;99.90
31542;DHT22;18152;49.986;8.646;2022-08-21T08:07:17;22.90;99.90
31542;DHT22;18152;49.986;8.646;2022-08-21T08:09:43;23.10;99.90
31542;DHT22;18152;49.986;8.646;2022-08-21T08:12:08;23.00;99.90
31542;DHT22;18152;49.986;8.646;2022-08-21T08:14:35;23.20;99.90
31542;DHT22;18152;49.986;8.646;2022-08-21T08:17:01;23.30;99.90
31542;DHT22;18152;49.986;8.646;2022-08-21T08:19:27;23.40;99.90
31542;DHT22;18152;49.986;8.646;2022-08-21T08:21:53;23.30;99.90
31542;DHT22;18152;49.986;8.646;2022-08-21T08:24:19;22.80;99.90
31542;DHT22;18152;49.986;8.646;2022-08-21T08:26:44;22.50;99.90
31542;DHT22;18152;49.986;8.646;2022-08-21T08:29:10;22.90;99.90
31542;DHT22;18152;49.986;8.646;2022-08-21T08:31:35;23.20;99.90
31542;DHT22;18152;49.986;8.646;2022-08-21T08:34:01;23.40;99.90
31542;DHT22;18152;49.986;8.646;2022-08-21T08:36:34;23.40;99.90
31542;DHT22;18152;49.986;8.646;2022-08-21T08:39:02;23.30;99.90
31542;DHT22;18152;49.986;8.646;2022-08-21T08:41:28;23.10;99.90
31542;DHT22;18152;49.986;8.646;2022-08-21T08:44:02;22.90;99.90
31542;DHT22;18152;49.986;8.646;2022-08-21T08:46:33;22.90;99.90
31542;DHT22;18152;49.986;8.646;2022-08-21T08:49:14;23.00;99.90
31542;DHT22;18152;49.986;8.646;2022-08-21T08:54:17;23.40;99.90
31542;DHT22;18152;49.986;8.646;2022-08-21T08:56:44;23.50;99.90
31542;DHT22;18152;49.986;8.646;2022-08-21T08:59:25;23.50;99.90
31542;DHT22;18152;49.986;8.646;2022-08-21T09:01:53;23.40;99.90
31542;DHT22;18152;49.986;8.646;2022-08-21T09:04:23;23.60;99.90
31542;DHT22;18152;49.986;8.646;2022-08-21T09:06:53;24.60;97.20
31542;DHT22;18152;49.986;8.646;2022-08-21T09:18:20;24.50;98.40
31542;DHT22;18152;49.986;8.646;2022-08-21T09:21:05;25.10;91.00
31542;DHT22;18152;49.986;8.646;2022-08-21T09:26:38;23.50;95.30
31542;DHT22;18152;49.986;8.646;2022-08-21T09:29:07;22.90;99.50
31542;DHT22;18152;49.986;8.646;2022-08-21T09:31:36;22.50;99.10
31542;DHT22;18152;49.986;8.646;2022-08-21T09:34:10;22.40;98.60
31542;DHT22;18152;49.986;8.646;2022-08-21T09:36:45;22.40;99.90
31542;DHT22;18152;49.986;8.646;2022-08-21T09:39:21;23.00;98.40
31542;DHT22;18152;49.986;8.646;2022-08-21T09:41:56;23.30;99.00
31542;DHT22;18152;49.986;8.646;2022-08-21T09:44:32;23.70;99.10
31542;DHT22;18152;49.986;8.646;2022-08-21T09:46:58;23.80;99.90
31542;DHT22;18152;49.986;8.646;2022-08-21T09:49:33;24.40;95.80
31542;DHT22;18152;49.986;8.646;2022-08-21T09:52:00;24.70;96.90
31542;DHT22;18152;49.986;8.646;2022-08-21T09:54:31;24.80;94.00
31542;DHT22;18152;49.986;8.646;2022-08-21T09:57:23;25.00;92.40
31542;DHT22;18152;49.986;8.646;2022-08-21T10:02:46;25.10;93.00
31542;DHT22;18152;49.986;8.646;2022-08-21T10:05:24;24.90;93.50
31542;DHT22;18152;49.986;8.646;2022-08-21T10:07:50;25.30;92.50
31542;DHT22;18152;49.986;8.646;2022-08-21T10:10:31;25.20;94.30
31542;DHT22;18152;49.986;8.646;2022-08-21T10:13:12;25.50;86.00
31542;DHT22;18152;49.986;8.646;2022-08-21T10:15:47;25.70;94.00
31542;DHT22;18152;49.986;8.646;2022-08-21T10:23:42;25.90;89.20
31542;DHT22;18152;49.986;8.646;2022-08-21T10:26:48;25.60;90.00
31542;DHT22;18152;49.986;8.646;2022-08-21T10:32:24;25.50;91.90
31542;DHT22;18152;49.986;8.646;2022-08-21T10:35:10;25.40;85.80
31542;DHT22;18152;49.986;8.646;2022-08-21T10:37:45;25.90;90.20
31542;DHT22;18152;49.986;8.646;2022-08-21T10:40:37;25.90;91.20
31542;DHT22;18152;49.986;8.646;2022-08-21T10:48:29;25.90;86.20
31542;DHT22;18152;49.986;8.646;2022-08-21T10:51:06;25.80;90.70
31542;DHT22;18152;49.986;8.646;2022-08-21T10:53:47;26.10;90.10
31542;DHT22;18152;49.986;8.646;2022-08-21T10:56:22;26.30;89.20
31542;DHT22;18152;49.986;8.646;2022-08-21T11:04:48;26.00;78.00
31542;DHT22;18152;49.986;8.646;2022-08-21T11:08:08;26.30;85.40
31542;DHT22;18152;49.986;8.646;2022-08-21T11:10:19;26.30;84.70
31542;DHT22;18152;49.986;8.646;2022-08-21T11:12:51;26.30;90.60
31542;DHT22;18152;49.986;8.646;2022-08-21T11:18:09;26.60;80.30
31542;DHT22;18152;49.986;8.646;2022-08-21T11:23:25;26.50;78.50
31542;DHT22;18152;49.986;8.646;2022-08-21T11:26:04;26.50;79.80
31542;DHT22;18152;49.986;8.646;2022-08-21T11:29:04;26.40;85.80
31542;DHT22;18152;49.986;8.646;2022-08-21T11:37:18;26.90;78.40
31542;DHT22;18152;49.986;8.646;2022-08-21T11:39:57;26.90;81.00
31542;DHT22;18152;49.986;8.646;2022-08-21T11:50:48;27.20;75.90
31542;DHT22;18152;49.986;8.646;2022-08-21T11:53:24;27.00;86.80
31542;DHT22;18152;49.986;8.646;2022-08-21T11:56:21;27.50;69.00
31542;DHT22;18152;49.986;8.646;2022-08-21T11:59:03;27.70;80.50
31542;DHT22;18152;49.986;8.646;2022-08-21T12:01:36;27.80;63.20
31542;DHT22;18152;49.986;8.646;2022-08-21T12:04:35;27.90;70.00
31542;DHT22;18152;49.986;8.646;2022-08-21T12:07:12;28.20;76.70
31542;DHT22;18152;49.986;8.646;2022-08-21T12:09:38;28.10;67.70
31542;DHT22;18152;49.986;8.646;2022-08-21T12:12:28;28.00;65.30
31542;DHT22;18152;49.986;8.646;2022-08-21T12:15:25;27.90;71.90
31542;DHT22;18152;49.986;8.646;2022-08-21T12:18:07;27.70;72.30
31542;DHT22;18152;49.986;8.646;2022-08-21T12:21:01;27.60;71.20
31542;DHT22;18152;49.986;8.646;2022-08-21T12:23:59;27.80;71.60
31542;DHT22;18152;49.986;8.646;2022-08-21T12:26:47;28.20;74.40
31542;DHT22;18152;49.986;8.646;2022-08-21T12:29:16;28.40;72.10
31542;DHT22;18152;49.986;8.646;2022-08-21T12:32:02;28.20;72.80
31542;DHT22;18152;49.986;8.646;2022-08-21T12:34:40;28.20;70.20
31542;DHT22;18152;49.986;8.646;2022-08-21T12:39:43;28.20;68.00
31542;DHT22;18152;49.986;8.646;2022-08-21T12:42:16;28.00;68.50
31542;DHT22;18152;49.986;8.646;2022-08-21T12:44:43;28.00;66.70
31542;DHT22;18152;49.986;8.646;2022-08-21T12:47:31;28.00;70.40
31542;DHT22;18152;49.986;8.646;2022-08-21T12:50:15;27.90;69.30
31542;DHT22;18152;49.986;8.646;2022-08-21T12:53:09;27.40;71.80
31542;DHT22;18152;49.986;8.646;2022-08-21T12:55:41;27.60;75.70
31542;DHT22;18152;49.986;8.646;2022-08-21T12:58:23;27.10;68.00
31542;DHT22;18152;49.986;8.646;2022-08-21T13:01:02;26.20;75.50
31542;DHT22;18152;49.986;8.646;2022-08-21T13:03:28;26.10;75.90
31542;DHT22;18152;49.986;8.646;2022-08-21T13:05:54;26.90;69.00
31542;DHT22;18152;49.986;8.646;2022-08-21T13:08:21;27.30;58.90
31542;DHT22;18152;49.986;8.646;2022-08-21T13:10:58;27.30;66.50
31542;DHT22;18152;49.986;8.646;2022-08-21T13:13:26;27.30;69.60
31542;DHT22;18152;49.986;8.646;2022-08-21T13:15:58;27.50;74.50
31542;DHT22;18152;49.986;8.646;2022-08-21T13:18:28;27.70;66.80
31542;DHT22;18152;49.986;8.646;2022-08-21T13:21:07;27.90;73.90
31542;DHT22;18152;49.986;8.646;2022-08-21T13:23:35;28.00;70.40
31542;DHT22;18152;49.986;8.646;2022-08-21T13:26:00;27.80;60.90
31542;DHT22;18152;49.986;8.646;2022-08-21T13:28:35;27.60;59.40
31542;DHT22;18152;49.986;8.646;2022-08-21T13:31:07;27.60;62.60
31542;DHT22;18152;49.986;8.646;2022-08-21T13:33:36;27.60;60.30
31542;DHT22;18152;49.986;8.646;2022-08-21T13:36:15;27.60;63.40
31542;DHT22;18152;49.986;8.646;2022-08-21T13:38:44;27.60;60.60
31542;DHT22;18152;49.986;8.646;2022-08-21T13:43:47;27.40;58.50
31542;DHT22;18152;49.986;8.646;2022-08-21T13:46:14;27.10;60.50
31542;DHT22;18152;49.986;8.646;2022-08-21T13:48:41;26.70;74.20
31542;DHT22;18152;49.986;8.646;2022-08-21T13:51:07;26.80;68.60
31542;DHT22;18152;49.986;8.646;2022-08-21T13:53:43;26.90;61.90
31542;DHT22;18152;49.986;8.646;2022-08-21T13:56:22;27.10;68.50
31542;DHT22;18152;49.986;8.646;2022-08-21T13:58:47;27.20;70.40
31542;DHT22;18152;49.986;8.646;2022-08-21T14:02:12;27.20;59.20
31542;DHT22;18152;49.986;8.646;2022-08-21T14:04:22;27.40;58.40
31542;DHT22;18152;49.986;8.646;2022-08-21T14:06:50;27.70;65.60
31542;DHT22;18152;49.986;8.646;2022-08-21T14:09:40;27.50;70.90
31542;DHT22;18152;49.986;8.646;2022-08-21T14:12:28;27.30;58.40
31542;DHT22;18152;49.986;8.646;2022-08-21T14:14:56;27.30;62.00
31542;DHT22;18152;49.986;8.646;2022-08-21T14:17:33;27.10;57.50
31542;DHT22;18152;49.986;8.646;2022-08-21T14:20:00;27.10;65.30
31542;DHT22;18152;49.986;8.646;2022-08-21T14:22:39;27.40;63.40
31542;DHT22;18152;49.986;8.646;2022-08-21T14:25:13;27.40;67.40
31542;DHT22;18152;49.986;8.646;2022-08-21T14:30:35;27.10;70.80
31542;DHT22;18152;49.986;8.646;2022-08-21T14:33:03;26.90;70.10
31542;DHT22;18152;49.986;8.646;2022-08-21T14:35:29;26.70;75.40
31542;DHT22;18152;49.986;8.646;2022-08-21T14:37:55;26.90;62.50
31542;DHT22;18152;49.986;8.646;2022-08-21T14:40:22;26.80;68.90
31542;DHT22;18152;49.986;8.646;2022-08-21T14:42:48;26.80;60.10
31542;DHT22;18152;49.986;8.646;2022-08-21T14:45:27;27.00;59.50
31542;DHT22;18152;49.986;8.646;2022-08-21T14:47:55;27.10;59.30
31542;DHT22;18152;49.986;8.646;2022-08-21T14:50:22;27.10;62.20
31542;DHT22;18152;49.986;8.646;2022-08-21T14:52:48;27.10;57.80
31542;DHT22;18152;49.986;8.646;2022-08-21T14:55:14;27.10;69.60
31542;DHT22;18152;49.986;8.646;2022-08-21T14:57:43;27.20;60.00
31542;DHT22;18152;49.986;8.646;2022-08-21T15:00:10;27.20;60.90
31542;DHT22;18152;49.986;8.646;2022-08-21T15:02:36;27.20;63.80
31542;DHT22;18152;49.986;8.646;2022-08-21T15:05:02;27.20;58.70
31542;DHT22;18152;49.986;8.646;2022-08-21T15:07:28;27.00;56.20
31542;DHT22;18152;49.986;8.646;2022-08-21T15:09:54;26.60;67.00
31542;DHT22;18152;49.986;8.646;2022-08-21T15:12:19;26.30;69.10
31542;DHT22;18152;49.986;8.646;2022-08-21T15:14:45;25.80;72.80
31542;DHT22;18152;49.986;8.646;2022-08-21T15:17:11;25.50;71.80
31542;DHT22;18152;49.986;8.646;2022-08-21T15:19:37;25.20;77.10
31542;DHT22;18152;49.986;8.646;2022-08-21T15:22:03;24.80;79.30
31542;DHT22;18152;49.986;8.646;2022-08-21T15:24:29;24.70;81.40
31542;DHT22;18152;49.986;8.646;2022-08-21T15:26:55;24.60;82.80
31542;DHT22;18152;49.986;8.646;2022-08-21T15:29:21;24.30;80.60
31542;DHT22;18152;49.986;8.646;2022-08-21T15:32:02;24.10;79.10
31542;DHT22;18152;49.986;8.646;2022-08-21T15:34:29;24.20;80.30
31542;DHT22;18152;49.986;8.646;2022-08-21T15:36:57;23.90;79.50
31542;DHT22;18152;49.986;8.646;2022-08-21T15:39:24;23.60;87.00
31542;DHT22;18152;49.986;8.646;2022-08-21T15:41:49;23.40;76.30
31542;DHT22;18152;49.986;8.646;2022-08-21T15:44:15;23.40;86.70
31542;DHT22;18152;49.986;8.646;2022-08-21T15:46:41;23.70;71.80
31542;DHT22;18152;49.986;8.646;2022-08-21T15:49:10;24.10;67.30
31542;DHT22;18152;49.986;8.646;2022-08-21T15:51:35;24.40;64.00
31542;DHT22;18152;49.986;8.646;2022-08-21T15:54:01;24.50;67.40
31542;DHT22;18152;49.986;8.646;2022-08-21T15:56:33;24.60;69.50
31542;DHT22;18152;49.986;8.646;2022-08-21T15:59:05;24.40;73.30
31542;DHT22;18152;49.986;8.646;2022-08-21T16:01:32;24.40;73.40
31542;DHT22;18152;49.986;8.646;2022-08-21T16:03:58;24.30;79.30
31542;DHT22;18152;49.986;8.646;2022-08-21T16:06:24;24.30;65.60
31542;DHT22;18152;49.986;8.646;2022-08-21T16:08:49;24.50;64.90
31542;DHT22;18152;49.986;8.646;2022-08-21T16:11:15;24.60;64.30
31542;DHT22;18152;49.986;8.646;2022-08-21T16:13:44;24.70;62.50
31542;DHT22;18152;49.986;8.646;2022-08-21T16:16:11;24.80;62.60
31542;DHT22;18152;49.986;8.646;2022-08-21T16:18:39;24.60;70.30
31542;DHT22;18152;49.986;8.646;2022-08-21T16:21:05;24.50;74.20
31542;DHT22;18152;49.986;8.646;2022-08-21T16:23:32;24.30;75.50
31542;DHT22;18152;49.986;8.646;2022-08-21T16:26:01;24.00;72.20
31542;DHT22;18152;49.986;8.646;2022-08-21T16:28:28;24.00;72.20
31542;DHT22;18152;49.986;8.646;2022-08-21T16:30:54;23.90;75.80
31542;DHT22;18152;49.986;8.646;2022-08-21T16:33:44;23.80;81.60
31542;DHT22;18152;49.986;8.646;2022-08-21T16:36:09;23.70;78.60
31542;DHT22;18152;49.986;8.646;2022-08-21T16:38:36;23.90;64.20
31542;DHT22;18152;49.986;8.646;2022-08-21T16:41:04;24.30;63.40
31542;DHT22;18152;49.986;8.646;2022-08-21T16:43:31;24.20;64.90
31542;DHT22;18152;49.986;8.646;2022-08-21T16:45:58;24.20;65.10
31542;DHT22;18152;49.986;8.646;2022-08-21T16:48:25;24.50;60.30
31542;DHT22;18152;49.986;8.646;2022-08-21T16:50:51;24.70;60.60
31542;DHT22;18152;49.986;8.646;2022-08-21T16:53:16;24.90;60.20
31542;DHT22;18152;49.986;8.646;2022-08-21T16:55:42;24.90;61.40